sensor_id;sensor_type;location;lat;lon;timestamp;pressure;altitude;pressure_sealevel;temperature;humidity
69214;BME280;56325;47.030;18.518;2023-03-01T00:01:33;101543.22;;;5.19;74.52
69214;BME280;56325;47.030;18.518;2023-03-01T00:04:08;101547.84;;;5.22;74.73
69214;BME280;56325;47.030;18.518;2023-03-01T00:06:43;101543.22;;;5.12;74.94
69214;BME280;56325;47.030;18.518;2023-03-01T00:09:19;101546.34;;;5.18;74.75
69214;BME280;56325;47.030;18.518;2023-03-01T00:11:53;101536.19;;;5.18;74.69
69214;BME280;56325;47.030;18.518;2023-03-01T00:14:27;101538.94;;;5.18;74.54
69214;BME280;56325;47.030;18.518;2023-03-01T00:17:02;101545.56;;;5.17;74.89
69214;BME280;56325;47.030;18.518;2023-03-01T00:19:37;101529.59;;;5.16;74.43
69214;BME280;56325;47.030;18.518;2023-03-01T00:22:12;101540.88;;;5.14;74.68
69214;BME280;56325;47.030;18.518;2023-03-01T00:24:47;101530.34;;;5.09;74.21
69214;BME280;56325;47.030;18.518;2023-03-01T00:27:22;101536.97;;;4.94;74.42
69214;BME280;56325;47.030;18.518;2023-03-01T00:30:00;101534.56;;;4.60;75.87
69214;BME280;56325;47.030;18.518;2023-03-01T00:32:35;101533.44;;;4.72;75.66
69214;BME280;56325;47.030;18.518;2023-03-01T00:35:10;101540.03;;;4.60;76.12
69214;BME280;56325;47.030;18.518;2023-03-01T00:37:45;101530.69;;;4.58;76.82
69214;BME280;56325;47.030;18.518;2023-03-01T00:40:22;101536.13;;;4.61;76.91
69214;BME280;56325;47.030;18.518;2023-03-01T00:42:56;101534.22;;;4.73;75.97
69214;BME280;56325;47.030;18.518;2023-03-01T00:45:32;101526.00;;;4.51;76.47
69214;BME280;56325;47.030;18.518;2023-03-01T00:48:07;101532.22;;;4.55;76.69
69214;BME280;56325;47.030;18.518;2023-03-01T00:50:41;101536.16;;;4.69;76.32
69214;BME280;56325;47.030;18.518;2023-03-01T00:53:17;101531.09;;;4.71;76.31
69214;BME280;56325;47.030;18.518;2023-03-01T00:55:52;101531.09;;;4.74;75.83
69214;BME280;56325;47.030;18.518;2023-03-01T00:58:26;101526.03;;;4.69;75.51
69214;BME280;56325;47.030;18.518;2023-03-01T01:01:07;101527.56;;;4.63;76.68
69214;BME280;56325;47.030;18.518;2023-03-01T01:03:51;101527.97;;;4.65;76.75
69214;BME280;56325;47.030;18.518;2023-03-01T01:06:28;101522.16;;;4.77;76.94
69214;BME280;56325;47.030;18.518;2023-03-01T01:09:06;101521.78;;;4.86;76.38
69214;BME280;56325;47.030;18.518;2023-03-01T01:11:40;101517.50;;;4.99;76.06
69214;BME280;56325;47.030;18.518;2023-03-01T01:14:15;101515.56;;;5.07;75.87
69214;BME280;56325;47.030;18.518;2023-03-01T01:16:50;101510.50;;;4.98;76.12
69214;BME280;56325;47.030;18.518;2023-03-01T01:19:25;101503.88;;;4.92;76.26
69214;BME280;56325;47.030;18.518;2023-03-01T01:22:00;101511.28;;;4.95;76.20
69214;BME280;56325;47.030;18.518;2023-03-01T01:24:36;101512.81;;;4.96;76.62
69214;BME280;56325;47.030;18.518;2023-03-01T01:27:11;101510.09;;;4.89;77.46
69214;BME280;56325;47.030;18.518;2023-03-01T01:29:45;101503.09;;;4.81;78.22
69214;BME280;56325;47.030;18.518;2023-03-01T01:32:19;101500.75;;;4.76;78.79
69214;BME280;56325;47.030;18.518;2023-03-01T01:34:54;101494.91;;;4.70;79.61
69214;BME280;56325;47.030;18.518;2023-03-01T01:37:28;101488.66;;;4.55;80.55
69214;BME280;56325;47.030;18.518;2023-03-01T01:40:10;101480.09;;;4.60;80.48
69214;BME280;56325;47.030;18.518;2023-03-01T01:42:45;101476.19;;;4.51;81.16
69214;BME280;56325;47.030;18.518;2023-03-01T01:45:31;101467.25;;;4.57;80.84
69214;BME280;56325;47.030;18.518;2023-03-01T01:48:11;101467.63;;;4.52;81.02
69214;BME280;56325;47.030;18.518;2023-03-01T01:50:50;101473.47;;;4.58;81.05
69214;BME280;56325;47.030;18.518;2023-03-01T01:53:27;101467.66;;;4.74;80.61
69214;BME280;56325;47.030;18.518;2023-03-01T01:56:06;101466.50;;;4.82;79.82
69214;BME280;56325;47.030;18.518;2023-03-01T01:58:43;101475.06;;;4.80;79.91
69214;BME280;56325;47.030;18.518;2023-03-01T02:01:20;101461.44;;;4.80;79.31
69214;BME280;56325;47.030;18.518;2023-03-01T02:03:55;101467.25;;;4.68;80.01
69214;BME280;56325;47.030;18.518;2023-03-01T02:06:34;101457.16;;;4.83;79.49
69214;BME280;56325;47.030;18.518;2023-03-01T02:09:13;101450.13;;;4.89;79.44
69214;BME280;56325;47.030;18.518;2023-03-01T02:11:50;101451.31;;;4.77;78.55
69214;BME280;56325;47.030;18.518;2023-03-01T02:14:25;101444.28;;;4.66;78.94
69214;BME280;56325;47.030;18.518;2023-03-01T02:17:00;101451.31;;;4.70;78.93
69214;BME280;56325;47.030;18.518;2023-03-01T02:19:44;101447.78;;;4.66;79.10
69214;BME280;56325;47.030;18.518;2023-03-01T02:22:24;101450.13;;;4.78;79.07
69214;BME280;56325;47.030;18.518;2023-03-01T02:25:08;101448.97;;;4.76;78.96
69214;BME280;56325;47.030;18.518;2023-03-01T02:27:54;101438.84;;;4.80;78.74
69214;BME280;56325;47.030;18.518;2023-03-01T02:30:34;101444.69;;;4.78;78.90
69214;BME280;56325;47.030;18.518;2023-03-01T02:33:09;101444.31;;;4.80;78.96
69214;BME280;56325;47.030;18.518;2023-03-01T02:35:43;101445.84;;;4.81;78.46
69214;BME280;56325;47.030;18.518;2023-03-01T02:38:18;101447.41;;;4.78;78.89
69214;BME280;56325;47.030;18.518;2023-03-01T02:40:53;101442.34;;;4.84;78.39
69214;BME280;56325;47.030;18.518;2023-03-01T02:43:31;101444.31;;;4.87;78.45
69214;BME280;56325;47.030;18.518;2023-03-01T02:46:16;101436.91;;;4.84;78.56
69214;BME280;56325;47.030;18.518;2023-03-01T02:48:53;101438.84;;;4.87;78.74
69214;BME280;56325;47.030;18.518;2023-03-01T02:51:38;101445.47;;;4.82;78.41
69214;BME280;56325;47.030;18.518;2023-03-01T02:54:21;101447.81;;;4.77;79.00
69214;BME280;56325;47.030;18.518;2023-03-01T02:56:57;101444.69;;;4.82;78.87
69214;BME280;56325;47.030;18.518;2023-03-01T02:59:35;101442.75;;;4.79;78.77
69214;BME280;56325;47.030;18.518;2023-03-01T03:02:21;101432.63;;;4.76;79.17
69214;BME280;56325;47.030;18.518;2023-03-01T03:05:11;101441.56;;;4.76;79.20
69214;BME280;56325;47.030;18.518;2023-03-01T03:07:48;101441.19;;;4.81;78.95
69214;BME280;56325;47.030;18.518;2023-03-01T03:10:26;101437.28;;;4.93;78.30
69214;BME280;56325;47.030;18.518;2023-03-01T03:13:03;101429.13;;;4.79;78.71
69214;BME280;56325;47.030;18.518;2023-03-01T03:15:38;101431.06;;;4.85;78.67
69214;BME280;56325;47.030;18.518;2023-03-01T03:18:16;101427.56;;;4.78;78.78
69214;BME280;56325;47.030;18.518;2023-03-01T03:20:52;101418.59;;;4.81;78.82
69214;BME280;56325;47.030;18.518;2023-03-01T03:23:27;101420.94;;;4.79;79.11
69214;BME280;56325;47.030;18.518;2023-03-01T03:26:03;101421.72;;;4.79;78.88
69214;BME280;56325;47.030;18.518;2023-03-01T03:28:37;101401.47;;;4.73;78.89
69214;BME280;56325;47.030;18.518;2023-03-01T03:31:13;101401.47;;;4.70;78.81
69214;BME280;56325;47.030;18.518;2023-03-01T03:33:49;101406.16;;;4.66;79.42
69214;BME280;56325;47.030;18.518;2023-03-01T03:36:24;101396.03;;;4.73;79.37
69214;BME280;56325;47.030;18.518;2023-03-01T03:38:59;101400.69;;;4.80;79.06
69214;BME280;56325;47.030;18.518;2023-03-01T03:41:34;101404.19;;;4.77;79.28
69214;BME280;56325;47.030;18.518;2023-03-01T03:44:09;101390.56;;;4.80;79.38
69214;BME280;56325;47.030;18.518;2023-03-01T03:46:43;101398.75;;;4.77;79.54
69214;BME280;56325;47.030;18.518;2023-03-01T03:49:19;101400.31;;;4.81;79.07
69214;BME280;56325;47.030;18.518;2023-03-01T03:51:54;101399.91;;;4.79;79.59
69214;BME280;56325;47.030;18.518;2023-03-01T03:54:29;101403.41;;;4.80;79.65
69214;BME280;56325;47.030;18.518;2023-03-01T03:57:03;101406.53;;;4.78;79.43
69214;BME280;56325;47.030;18.518;2023-03-01T03:59:38;101394.47;;;4.76;79.84
69214;BME280;56325;47.030;18.518;2023-03-01T04:02:12;101401.47;;;4.77;79.82
69214;BME280;56325;47.030;18.518;2023-03-01T04:04:56;101406.91;;;4.84;79.73
69214;BME280;56325;47.030;18.518;2023-03-01T04:07:31;101405.75;;;4.92;79.52
69214;BME280;56325;47.030;18.518;2023-03-01T04:10:08;101401.44;;;5.05;79.06
69214;BME280;56325;47.030;18.518;2023-03-01T04:12:46;101403.41;;;4.94;79.33
69214;BME280;56325;47.030;18.518;2023-03-01T04:15:21;101399.13;;;4.97;79.24
69214;BME280;56325;47.030;18.518;2023-03-01T04:17:59;101396.78;;;4.95;79.10
69214;BME280;56325;47.030;18.518;2023-03-01T04:20:36;101405.75;;;4.88;79.35
69214;BME280;56325;47.030;18.518;2023-03-01T04:23:13;101407.69;;;4.95;79.29
69214;BME280;56325;47.030;18.518;2023-03-01T04:25:51;101408.09;;;4.86;79.41
69214;BME280;56325;47.030;18.518;2023-03-01T04:28:30;101416.66;;;4.81;79.60
69214;BME280;56325;47.030;18.518;2023-03-01T04:31:08;101403.03;;;4.88;79.73
69214;BME280;56325;47.030;18.518;2023-03-01T04:33:48;101402.63;;;4.83;79.36
69214;BME280;56325;47.030;18.518;2023-03-01T04:36:27;101410.03;;;4.86;79.42
69214;BME280;56325;47.030;18.518;2023-03-01T04:39:02;101411.59;;;4.87;79.66
69214;BME280;56325;47.030;18.518;2023-03-01T04:41:45;101411.97;;;4.92;79.69
69214;BME280;56325;47.030;18.518;2023-03-01T04:44:19;101412.38;;;4.84;80.05
69214;BME280;56325;47.030;18.518;2023-03-01T04:46:54;101406.13;;;4.90;79.92
69214;BME280;56325;47.030;18.518;2023-03-01T04:49:28;101411.59;;;4.87;80.21
69214;BME280;56325;47.030;18.518;2023-03-01T04:52:04;101410.81;;;4.79;80.45
69214;BME280;56325;47.030;18.518;2023-03-01T04:54:39;101401.88;;;4.86;80.35
69214;BME280;56325;47.030;18.518;2023-03-01T04:57:13;101404.59;;;4.89;80.38
69214;BME280;56325;47.030;18.518;2023-03-01T04:59:48;101389.66;;;7.78;100.00
69214;BME280;56325;47.030;18.518;2023-03-01T05:02:23;101390.16;;;9.16;100.00
69214;BME280;56325;47.030;18.518;2023-03-01T05:04:57;101388.12;;;7.73;98.26
69214;BME280;56325;47.030;18.518;2023-03-01T05:07:33;101394.28;;;6.79;93.68
69214;BME280;56325;47.030;18.518;2023-03-01T05:10:10;101391.66;;;6.13;85.66
69214;BME280;56325;47.030;18.518;2023-03-01T05:12:45;101394.53;;;5.91;84.43
69214;BME280;56325;47.030;18.518;2023-03-01T05:15:20;101395.81;;;5.58;82.76
69214;BME280;56325;47.030;18.518;2023-03-01T05:17:59;101391.19;;;5.45;82.58
69214;BME280;56325;47.030;18.518;2023-03-01T05:20:34;101395.09;;;5.40;82.00
69214;BME280;56325;47.030;18.518;2023-03-01T05:23:11;101399.03;;;5.28;82.06
69214;BME280;56325;47.030;18.518;2023-03-01T05:25:46;101405.34;;;5.11;82.18
69214;BME280;56325;47.030;18.518;2023-03-01T05:28:21;101409.63;;;5.09;82.18
69214;BME280;56325;47.030;18.518;2023-03-01T05:30:56;101410.37;;;5.20;81.90
69214;BME280;56325;47.030;18.518;2023-03-01T05:33:30;101408.38;;;5.27;81.48
69214;BME280;56325;47.030;18.518;2023-03-01T05:36:06;101396.31;;;5.28;81.25
69214;BME280;56325;47.030;18.518;2023-03-01T05:38:43;101387.94;;;9.51;100.00
69214;BME280;56325;47.030;18.518;2023-03-01T05:41:17;101391.72;;;8.24;98.45
69214;BME280;56325;47.030;18.518;2023-03-01T05:43:52;101400.41;;;6.90;88.05
69214;BME280;56325;47.030;18.518;2023-03-01T05:46:27;101385.03;;;7.71;100.00
69214;BME280;56325;47.030;18.518;2023-03-01T05:49:03;101402.06;;;6.80;85.55
69214;BME280;56325;47.030;18.518;2023-03-01T05:51:38;101404.06;;;6.24;82.58
69214;BME280;56325;47.030;18.518;2023-03-01T05:54:14;101399.59;;;5.86;81.34
69214;BME280;56325;47.030;18.518;2023-03-01T05:56:48;101400.13;;;5.52;81.48
69214;BME280;56325;47.030;18.518;2023-03-01T05:59:23;101404.00;;;5.55;81.21
69214;BME280;56325;47.030;18.518;2023-03-01T06:01:58;101391.41;;;8.45;100.00
69214;BME280;56325;47.030;18.518;2023-03-01T06:04:32;101402.47;;;8.11;96.35
69214;BME280;56325;47.030;18.518;2023-03-01T06:07:07;101397.50;;;8.03;99.37
69214;BME280;56325;47.030;18.518;2023-03-01T06:09:42;101398.22;;;8.61;89.13
69214;BME280;56325;47.030;18.518;2023-03-01T06:12:17;101404.16;;;7.41;79.84
69214;BME280;56325;47.030;18.518;2023-03-01T06:14:52;101409.28;;;7.01;80.09
69214;BME280;56325;47.030;18.518;2023-03-01T06:17:29;101415.59;;;6.50;78.30
69214;BME280;56325;47.030;18.518;2023-03-01T06:20:06;101416.09;;;6.34;79.96
69214;BME280;56325;47.030;18.518;2023-03-01T06:22:42;101420.28;;;5.90;78.61
69214;BME280;56325;47.030;18.518;2023-03-01T06:25:20;101410.19;;;5.73;78.75
69214;BME280;56325;47.030;18.518;2023-03-01T06:27:55;101416.03;;;5.68;80.22
69214;BME280;56325;47.030;18.518;2023-03-01T06:30:30;101426.63;;;5.48;79.38
69214;BME280;56325;47.030;18.518;2023-03-01T06:33:07;101431.72;;;5.43;79.69
69214;BME280;56325;47.030;18.518;2023-03-01T06:35:41;101431.72;;;5.43;79.38
69214;BME280;56325;47.030;18.518;2023-03-01T06:38:16;101437.19;;;5.39;78.93
69214;BME280;56325;47.030;18.518;2023-03-01T06:40:54;101434.88;;;5.34;77.94
69214;BME280;56325;47.030;18.518;2023-03-01T06:43:29;101430.59;;;5.30;78.40
69214;BME280;56325;47.030;18.518;2023-03-01T06:46:04;101438.41;;;5.20;77.98
69214;BME280;56325;47.030;18.518;2023-03-01T06:48:39;101430.22;;;5.20;76.99
69214;BME280;56325;47.030;18.518;2023-03-01T06:51:14;101437.28;;;5.11;78.05
69214;BME280;56325;47.030;18.518;2023-03-01T06:53:48;101437.22;;;5.21;77.85
69214;BME280;56325;47.030;18.518;2023-03-01T06:56:24;101441.09;;;5.31;76.29
69214;BME280;56325;47.030;18.518;2023-03-01T06:58:59;101418.31;;;7.97;100.00
69214;BME280;56325;47.030;18.518;2023-03-01T07:02:58;101431.91;;;7.43;84.67
69214;BME280;56325;47.030;18.518;2023-03-01T07:05:33;101431.91;;;7.43;84.67
69214;BME280;56325;47.030;18.518;2023-03-01T07:08:08;101429.31;;;6.39;80.16
69214;BME280;56325;47.030;18.518;2023-03-01T07:10:44;101432.94;;;6.22;81.13
69214;BME280;56325;47.030;18.518;2023-03-01T07:13:19;101432.31;;;5.97;77.05
69214;BME280;56325;47.030;18.518;2023-03-01T07:15:53;101442.50;;;5.85;76.38
69214;BME280;56325;47.030;18.518;2023-03-01T07:18:29;101440.59;;;5.68;76.72
69214;BME280;56325;47.030;18.518;2023-03-01T07:21:05;101438.28;;;5.67;77.31
69214;BME280;56325;47.030;18.518;2023-03-01T07:23:40;101438.69;;;5.58;75.22
69214;BME280;56325;47.030;18.518;2023-03-01T07:26:15;101446.13;;;5.43;76.33
69214;BME280;56325;47.030;18.518;2023-03-01T07:28:49;101428.47;;;8.27;100.00
69214;BME280;56325;47.030;18.518;2023-03-01T07:31:24;101418.66;;;10.18;100.00
69214;BME280;56325;47.030;18.518;2023-03-01T07:34:02;101429.16;;;9.28;87.12
69214;BME280;56325;47.030;18.518;2023-03-01T07:36:37;101428.03;;;8.01;80.62
69214;BME280;56325;47.030;18.518;2023-03-01T07:39:12;101426.87;;;7.38;77.20
69214;BME280;56325;47.030;18.518;2023-03-01T07:41:47;101423.78;;;6.95;74.39
69214;BME280;56325;47.030;18.518;2023-03-01T07:44:25;101431.13;;;6.60;74.93
69214;BME280;56325;47.030;18.518;2023-03-01T07:47:01;101433.16;;;6.49;75.66
69214;BME280;56325;47.030;18.518;2023-03-01T07:49:39;101429.69;;;6.41;74.78
69214;BME280;56325;47.030;18.518;2023-03-01T07:52:14;101431.00;;;6.19;75.24
69214;BME280;56325;47.030;18.518;2023-03-01T07:54:48;101433.31;;;6.24;73.96
69214;BME280;56325;47.030;18.518;2023-03-01T07:57:23;101434.56;;;6.09;75.08
69214;BME280;56325;47.030;18.518;2023-03-01T07:59:58;101431.94;;;5.87;74.28
69214;BME280;56325;47.030;18.518;2023-03-01T08:02:32;101434.31;;;5.93;74.35
69214;BME280;56325;47.030;18.518;2023-03-01T08:05:09;101428.09;;;5.78;75.33
69214;BME280;56325;47.030;18.518;2023-03-01T08:07:43;101431.56;;;5.85;75.46
69214;BME280;56325;47.030;18.518;2023-03-01T08:10:19;101428.03;;;5.96;73.95
69214;BME280;56325;47.030;18.518;2023-03-01T08:12:53;101419.84;;;5.96;74.31
69214;BME280;56325;47.030;18.518;2023-03-01T08:15:28;101419.84;;;5.99;73.52
69214;BME280;56325;47.030;18.518;2023-03-01T08:18:02;101422.22;;;5.94;72.83
69214;BME280;56325;47.030;18.518;2023-03-01T08:20:39;101419.84;;;5.96;73.27
69214;BME280;56325;47.030;18.518;2023-03-01T08:23:13;101417.91;;;5.96;74.11
69214;BME280;56325;47.030;18.518;2023-03-01T08:25:48;101417.94;;;5.85;72.58
69214;BME280;56325;47.030;18.518;2023-03-01T08:28:22;101417.50;;;5.98;72.72
69214;BME280;56325;47.030;18.518;2023-03-01T08:30:57;101421.44;;;5.89;72.97
69214;BME280;56325;47.030;18.518;2023-03-01T08:33:31;101413.63;;;5.95;72.50
69214;BME280;56325;47.030;18.518;2023-03-01T08:36:07;101413.63;;;5.91;72.44
69214;BME280;56325;47.030;18.518;2023-03-01T08:38:42;101413.59;;;5.99;72.79
69214;BME280;56325;47.030;18.518;2023-03-01T08:41:17;101412.03;;;5.98;71.74
69214;BME280;56325;47.030;18.518;2023-03-01T08:43:52;101412.41;;;6.00;72.29
69214;BME280;56325;47.030;18.518;2023-03-01T08:46:34;101411.22;;;6.04;72.30
69214;BME280;56325;47.030;18.518;2023-03-01T08:49:11;101408.91;;;5.99;71.27
69214;BME280;56325;47.030;18.518;2023-03-01T08:51:48;101408.91;;;6.03;71.95
69214;BME280;56325;47.030;18.518;2023-03-01T08:54:22;101410.88;;;5.99;71.24
69214;BME280;56325;47.030;18.518;2023-03-01T08:56:57;101411.25;;;6.01;71.02
69214;BME280;56325;47.030;18.518;2023-03-01T08:59:32;101402.19;;;6.11;70.39
69214;BME280;56325;47.030;18.518;2023-03-01T09:02:12;101391.62;;;6.16;71.14
69214;BME280;56325;47.030;18.518;2023-03-01T09:04:47;101395.50;;;6.19;70.77
69214;BME280;56325;47.030;18.518;2023-03-01T09:07:23;101393.94;;;6.21;70.98
69214;BME280;56325;47.030;18.518;2023-03-01T09:10:01;101387.56;;;6.39;70.44
69214;BME280;56325;47.030;18.518;2023-03-01T09:12:37;101386.84;;;6.31;70.43
69214;BME280;56325;47.030;18.518;2023-03-01T09:15:11;101386.09;;;6.27;69.39
69214;BME280;56325;47.030;18.518;2023-03-01T09:17:46;101384.81;;;6.42;69.33
69214;BME280;56325;47.030;18.518;2023-03-01T09:20:20;101382.09;;;6.39;68.34
69214;BME280;56325;47.030;18.518;2023-03-01T09:22:57;101379.00;;;6.37;67.87
69214;BME280;56325;47.030;18.518;2023-03-01T09:25:31;101366.50;;;6.39;68.10
69214;BME280;56325;47.030;18.518;2023-03-01T09:28:06;101364.84;;;6.49;67.42
69214;BME280;56325;47.030;18.518;2023-03-01T09:30:50;101361.72;;;6.50;67.93
69214;BME280;56325;47.030;18.518;2023-03-01T09:33:25;101351.97;;;6.49;67.81
69214;BME280;56325;47.030;18.518;2023-03-01T09:36:00;101359.34;;;6.52;68.09
69214;BME280;56325;47.030;18.518;2023-03-01T09:38:36;101355.28;;;6.71;75.84
69214;BME280;56325;47.030;18.518;2023-03-01T09:41:22;101362.03;;;9.12;91.55
69214;BME280;56325;47.030;18.518;2023-03-01T09:44:05;101351.41;;;7.71;68.90
69214;BME280;56325;47.030;18.518;2023-03-01T09:46:44;101363.31;;;7.23;66.64
69214;BME280;56325;47.030;18.518;2023-03-01T09:49:21;101352.75;;;6.91;66.87
69214;BME280;56325;47.030;18.518;2023-03-01T09:52:01;101348.97;;;6.78;67.05
69214;BME280;56325;47.030;18.518;2023-03-01T09:54:40;101342.78;;;6.74;67.14
69214;BME280;56325;47.030;18.518;2023-03-01T09:57:18;101346.31;;;6.71;67.05
69214;BME280;56325;47.030;18.518;2023-03-01T10:00:03;101336.47;;;6.80;67.20
69214;BME280;56325;47.030;18.518;2023-03-01T10:02:49;101339.50;;;6.89;67.29
69214;BME280;56325;47.030;18.518;2023-03-01T10:05:39;101332.50;;;6.85;67.02
69214;BME280;56325;47.030;18.518;2023-03-01T10:08:26;101333.97;;;6.93;67.26
69214;BME280;56325;47.030;18.518;2023-03-01T10:11:04;101323.88;;;6.90;66.25
69214;BME280;56325;47.030;18.518;2023-03-01T10:13:46;101322.19;;;6.96;66.61
69214;BME280;56325;47.030;18.518;2023-03-01T10:16:40;101321.03;;;6.97;67.24
69214;BME280;56325;47.030;18.518;2023-03-01T10:19:22;101320.47;;;7.13;66.07
69214;BME280;56325;47.030;18.518;2023-03-01T10:22:03;101321.59;;;7.15;65.91
69214;BME280;56325;47.030;18.518;2023-03-01T10:24:38;101327.84;;;7.16;64.70
69214;BME280;56325;47.030;18.518;2023-03-01T10:27:18;101326.81;;;7.03;64.88
69214;BME280;56325;47.030;18.518;2023-03-01T10:30:02;101317.34;;;7.11;66.04
69214;BME280;56325;47.030;18.518;2023-03-01T10:32:46;101306.25;;;7.25;65.88
69214;BME280;56325;47.030;18.518;2023-03-01T10:35:25;101294.72;;;7.41;65.20
69214;BME280;56325;47.030;18.518;2023-03-01T10:38:05;101306.66;;;7.54;64.73
69214;BME280;56325;47.030;18.518;2023-03-01T10:40:51;101313.78;;;7.48;64.05
69214;BME280;56325;47.030;18.518;2023-03-01T10:43:44;101320.12;;;7.41;65.25
69214;BME280;56325;47.030;18.518;2023-03-01T10:46:26;101309.66;;;7.63;65.34
69214;BME280;56325;47.030;18.518;2023-03-01T10:49:14;101310.12;;;7.58;65.02
69214;BME280;56325;47.030;18.518;2023-03-01T10:51:51;101300.25;;;7.64;64.86
69214;BME280;56325;47.030;18.518;2023-03-01T10:54:28;101304.66;;;7.58;65.16
69214;BME280;56325;47.030;18.518;2023-03-01T10:57:04;101299.91;;;7.62;64.72
69214;BME280;56325;47.030;18.518;2023-03-01T10:59:40;101303.56;;;7.52;63.12
69214;BME280;56325;47.030;18.518;2023-03-01T11:02:17;101296.62;;;7.44;63.85
69214;BME280;56325;47.030;18.518;2023-03-01T11:04:59;101310.00;;;7.38;64.49
69214;BME280;56325;47.030;18.518;2023-03-01T11:07:46;101291.59;;;7.39;64.07
69214;BME280;56325;47.030;18.518;2023-03-01T11:10:24;101292.78;;;7.38;64.73
69214;BME280;56325;47.030;18.518;2023-03-01T11:13:07;101295.16;;;7.36;65.20
69214;BME280;56325;47.030;18.518;2023-03-01T11:15:58;101288.47;;;7.40;64.78
69214;BME280;56325;47.030;18.518;2023-03-01T11:18:34;101296.53;;;7.51;64.14
69214;BME280;56325;47.030;18.518;2023-03-01T11:21:19;101281.56;;;7.59;65.06
69214;BME280;56325;47.030;18.518;2023-03-01T11:23:54;101279.44;;;7.70;64.66
69214;BME280;56325;47.030;18.518;2023-03-01T11:26:30;101269.59;;;7.76;64.49
69214;BME280;56325;47.030;18.518;2023-03-01T11:29:16;101266.34;;;7.81;64.32
69214;BME280;56325;47.030;18.518;2023-03-01T11:31:56;101265.53;;;7.84;64.26
69214;BME280;56325;47.030;18.518;2023-03-01T11:34:38;101252.19;;;7.86;63.63
69214;BME280;56325;47.030;18.518;2023-03-01T11:37:22;101239.56;;;7.93;62.64
69214;BME280;56325;47.030;18.518;2023-03-01T11:40:10;101240.78;;;8.15;63.74
69214;BME280;56325;47.030;18.518;2023-03-01T11:42:59;101228.50;;;8.23;63.36
69214;BME280;56325;47.030;18.518;2023-03-01T11:45:47;101225.62;;;8.30;63.33
69214;BME280;56325;47.030;18.518;2023-03-01T11:48:46;101223.16;;;8.39;64.21
69214;BME280;56325;47.030;18.518;2023-03-01T11:51:25;101225.28;;;8.51;62.68
69214;BME280;56325;47.030;18.518;2023-03-01T11:54:24;101225.28;;;8.51;62.26
69214;BME280;56325;47.030;18.518;2023-03-01T11:57:07;101221.28;;;8.56;62.35
69214;BME280;56325;47.030;18.518;2023-03-01T12:00:07;101213.53;;;8.71;62.28
69214;BME280;56325;47.030;18.518;2023-03-01T12:03:17;101201.00;;;8.70;62.06
69214;BME280;56325;47.030;18.518;2023-03-01T12:06:38;101199.81;;;8.71;62.72
69214;BME280;56325;47.030;18.518;2023-03-01T12:09:37;101196.97;;;8.94;62.17
69214;BME280;56325;47.030;18.518;2023-03-01T12:12:36;101198.03;;;9.00;61.64
69214;BME280;56325;47.030;18.518;2023-03-01T12:15:30;101197.69;;;8.98;61.28
69214;BME280;56325;47.030;18.518;2023-03-01T12:18:17;101197.25;;;9.00;61.09
69214;BME280;56325;47.030;18.518;2023-03-01T12:21:06;101186.44;;;8.73;60.65
69214;BME280;56325;47.030;18.518;2023-03-01T12:27:05;101179.19;;;8.82;62.16
69214;BME280;56325;47.030;18.518;2023-03-01T12:29:46;101178.34;;;8.85;62.28
69214;BME280;56325;47.030;18.518;2023-03-01T12:32:47;101171.41;;;8.81;61.58
69214;BME280;56325;47.030;18.518;2023-03-01T12:35:57;101165.56;;;8.79;62.21
69214;BME280;56325;47.030;18.518;2023-03-01T12:38:41;101158.47;;;8.81;62.46
69214;BME280;56325;47.030;18.518;2023-03-01T12:41:47;101169.84;;;8.80;63.08
69214;BME280;56325;47.030;18.518;2023-03-01T12:44:44;101166.97;;;8.87;61.87
69214;BME280;56325;47.030;18.518;2023-03-01T12:47:37;101163.59;;;8.79;61.92
69214;BME280;56325;47.030;18.518;2023-03-01T12:50:23;101166.91;;;8.71;62.52
69214;BME280;56325;47.030;18.518;2023-03-01T12:52:59;101155.72;;;8.81;61.86
69214;BME280;56325;47.030;18.518;2023-03-01T12:55:36;101150.44;;;8.71;63.53
69214;BME280;56325;47.030;18.518;2023-03-01T12:58:22;101143.84;;;8.68;62.94
69214;BME280;56325;47.030;18.518;2023-03-01T13:01:14;101136.41;;;8.69;63.05
69214;BME280;56325;47.030;18.518;2023-03-01T13:04:06;101136.25;;;8.76;63.12
69214;BME280;56325;47.030;18.518;2023-03-01T13:06:52;101133.06;;;8.77;63.64
69214;BME280;56325;47.030;18.518;2023-03-01T13:09:34;101129.91;;;8.79;62.80
69214;BME280;56325;47.030;18.518;2023-03-01T13:12:50;101120.34;;;8.87;62.53
69214;BME280;56325;47.030;18.518;2023-03-01T13:15:29;101131.03;;;8.81;62.83
69214;BME280;56325;47.030;18.518;2023-03-01T13:18:28;101119.62;;;8.83;62.98
69214;BME280;56325;47.030;18.518;2023-03-01T13:21:05;101120.91;;;8.78;62.71
69214;BME280;56325;47.030;18.518;2023-03-01T13:23:40;101119.44;;;8.74;63.18
69214;BME280;56325;47.030;18.518;2023-03-01T13:26:17;101121.97;;;8.84;63.72
69214;BME280;56325;47.030;18.518;2023-03-01T13:28:53;101114.06;;;8.86;63.16
69214;BME280;56325;47.030;18.518;2023-03-01T13:32:01;101117.66;;;8.83;63.23
69214;BME280;56325;47.030;18.518;2023-03-01T13:34:43;101116.47;;;8.84;63.59
69214;BME280;56325;47.030;18.518;2023-03-01T13:37:22;101112.38;;;8.93;63.50
69214;BME280;56325;47.030;18.518;2023-03-01T13:40:03;101116.97;;;8.79;63.61
69214;BME280;56325;47.030;18.518;2023-03-01T13:42:44;101104.69;;;10.81;89.23
69214;BME280;56325;47.030;18.518;2023-03-01T13:45:38;101100.88;;;10.24;65.33
69214;BME280;56325;47.030;18.518;2023-03-01T13:48:21;101102.44;;;9.64;64.60
69214;BME280;56325;47.030;18.518;2023-03-01T13:50:59;101095.53;;;9.43;63.49
69214;BME280;56325;47.030;18.518;2023-03-01T13:53:38;101093.97;;;9.09;63.78
69214;BME280;56325;47.030;18.518;2023-03-01T13:56:15;101086.69;;;9.19;63.26